createdAt,value
2018-11-04T00:01:42.194Z,101857.08
2018-11-04T00:04:13.000Z,101851.97
2018-11-04T00:06:43.302Z,101848.55
2018-11-04T00:09:14.583Z,101850.67
2018-11-04T00:11:45.408Z,101842.56
2018-11-04T00:14:15.844Z,101836.14
2018-11-04T00:16:46.815Z,101829.29
2018-11-04T00:19:17.007Z,101823.30
2018-11-04T00:21:46.691Z,101819.86
2018-11-04T00:24:16.562Z,101821.11
2018-11-04T00:26:46.367Z,101807.05
2018-11-04T00:29:16.103Z,101805.34
2018-11-04T00:31:46.674Z,101807.05
2018-11-04T00:34:17.193Z,101801.49
2018-11-04T00:36:47.774Z,101798.92
2018-11-04T00:39:18.398Z,101802.80
2018-11-04T00:41:49.185Z,101798.06
2018-11-04T00:44:20.576Z,101798.52
2018-11-04T00:46:51.272Z,101801.91
2018-11-04T00:49:21.813Z,101799.39
2018-11-04T00:51:52.386Z,101800.65
2018-11-04T00:54:22.872Z,101805.38
2018-11-04T00:56:53.388Z,101791.24
2018-11-04T00:59:23.767Z,101789.50
2018-11-04T01:01:54.340Z,101778.81
2018-11-04T01:04:24.723Z,101774.12
2018-11-04T01:06:55.192Z,101772.38
2018-11-04T01:09:25.578Z,101778.83
2018-11-04T01:11:55.952Z,101767.73
2018-11-04T01:14:26.622Z,101770.73
2018-11-04T01:16:57.139Z,101769.46
2018-11-04T01:19:27.459Z,101762.17
2018-11-04T01:21:57.999Z,101758.78
2018-11-04T01:24:28.493Z,101748.48
2018-11-04T01:26:58.939Z,101739.48
2018-11-04T01:29:29.447Z,101741.63
2018-11-04T01:31:59.806Z,101734.77
2018-11-04T01:34:30.181Z,101737.31
2018-11-04T01:37:00.670Z,101731.34
2018-11-04T01:39:31.076Z,101733.91
2018-11-04T01:42:01.414Z,101729.23
2018-11-04T01:44:31.732Z,101721.94
2018-11-04T01:47:02.183Z,101721.51
2018-11-04T01:49:32.881Z,101718.50
2018-11-04T01:52:03.128Z,101710.36
2018-11-04T01:54:33.407Z,101707.80
2018-11-04T01:57:05.021Z,101697.59
2018-11-04T01:59:35.915Z,101702.75
2018-11-04T02:02:06.539Z,101694.23
2018-11-04T02:04:36.786Z,101690.36
2018-11-04T02:07:07.481Z,101684.84
2018-11-04T02:09:37.835Z,101685.67
2018-11-04T02:12:08.742Z,101676.70
2018-11-04T02:14:39.239Z,101675.42
2018-11-04T02:17:09.709Z,101671.16
2018-11-04T02:19:40.205Z,101665.60
2018-11-04T02:22:10.587Z,101666.05
2018-11-04T02:24:41.032Z,101663.02
2018-11-04T02:27:11.452Z,101664.28
2018-11-04T02:29:41.695Z,101656.57
2018-11-04T02:32:12.192Z,101649.73
2018-11-04T02:34:42.735Z,101649.34
2018-11-04T02:37:13.066Z,101646.34
2018-11-04T02:39:43.663Z,101646.78
2018-11-04T02:42:14.121Z,101641.20
2018-11-04T02:44:44.479Z,101639.02
2018-11-04T02:47:14.859Z,101631.71
2018-11-04T02:49:45.160Z,101626.09
2018-11-04T02:52:15.468Z,101623.52
2018-11-04T02:54:45.796Z,101623.45
2018-11-04T02:57:16.315Z,101613.60
2018-11-04T02:59:46.788Z,101603.73
2018-11-04T03:02:17.166Z,101600.72
2018-11-04T03:04:47.516Z,101599.83
2018-11-04T03:07:17.987Z,101592.11
2018-11-04T03:09:48.396Z,101589.45
2018-11-04T03:12:18.847Z,101586.06
2018-11-04T03:14:49.066Z,101587.27
2018-11-04T03:17:19.505Z,101577.72
2018-11-04T03:19:49.935Z,101580.33
2018-11-04T03:22:20.278Z,101574.23
2018-11-04T03:24:50.678Z,101565.70
2018-11-04T03:27:21.176Z,101570.50
2018-11-04T03:29:51.548Z,101568.77
2018-11-04T03:32:22.023Z,101570.55
2018-11-04T03:34:52.313Z,101567.52
2018-11-04T03:37:22.887Z,101565.39
2018-11-04T03:39:53.497Z,101558.06
2018-11-04T03:42:23.821Z,101545.58
2018-11-04T03:44:54.336Z,101544.62
2018-11-04T03:47:24.727Z,101545.05
2018-11-04T03:49:55.055Z,101548.44
2018-11-04T03:52:25.555Z,101550.59
2018-11-04T03:54:55.857Z,101548.90
2018-11-04T03:57:26.856Z,101541.17
2018-11-04T03:59:57.232Z,101535.58
2018-11-04T04:02:27.741Z,101531.73
2018-11-04T04:04:58.308Z,101526.98
2018-11-04T04:07:28.764Z,101527.36
2018-11-04T04:09:59.525Z,101529.05
2018-11-04T04:12:29.833Z,101531.56
2018-11-04T04:15:00.097Z,101518.63
2018-11-04T04:17:30.472Z,101527.99
2018-11-04T04:20:00.994Z,101525.02
2018-11-04T04:22:31.452Z,101529.28
2018-11-04T04:25:01.816Z,101527.20
2018-11-04T04:27:32.299Z,101514.11
2018-11-04T04:30:02.846Z,101519.24
2018-11-04T04:32:33.158Z,101517.16
2018-11-04T04:35:03.458Z,101516.76
2018-11-04T04:37:33.930Z,101518.05
2018-11-04T04:40:04.441Z,101509.86
2018-11-04T04:42:34.895Z,101512.40
2018-11-04T04:45:05.626Z,101518.84
2018-11-04T04:47:36.124Z,101518.83
2018-11-04T04:50:06.682Z,101516.25
2018-11-04T04:52:37.132Z,101519.14
2018-11-04T04:55:07.892Z,101512.64
2018-11-04T04:57:38.476Z,101509.58
2018-11-04T05:00:09.455Z,101505.25
2018-11-04T05:02:39.890Z,101503.12
2018-11-04T05:05:10.374Z,101495.25
2018-11-04T05:07:40.860Z,101490.08
2018-11-04T05:10:11.215Z,101496.11
2018-11-04T05:12:41.686Z,101489.75
2018-11-04T05:15:11.977Z,101490.54
2018-11-04T05:17:42.363Z,101487.11
2018-11-04T05:20:12.731Z,101485.02
2018-11-04T05:22:43.196Z,101478.19
2018-11-04T05:25:13.792Z,101475.53
2018-11-04T05:27:44.374Z,101474.51
2018-11-04T05:30:14.878Z,101470.28
2018-11-04T05:32:45.167Z,101470.07
2018-11-04T05:35:15.608Z,101459.95
2018-11-04T05:37:46.175Z,101465.66
2018-11-04T05:40:16.516Z,101472.86
2018-11-04T05:42:47.468Z,101470.41
2018-11-04T05:45:17.772Z,101473.22
2018-11-04T05:47:48.035Z,101480.37
2018-11-04T05:50:18.498Z,101482.03
2018-11-04T05:52:48.921Z,101478.64
2018-11-04T05:55:19.347Z,101479.44
2018-11-04T05:57:49.724Z,101476.91
2018-11-04T06:00:20.145Z,101480.34
2018-11-04T06:02:53.375Z,101477.63
2018-11-04T06:05:23.905Z,101478.42
2018-11-04T06:07:54.088Z,101485.15
2018-11-04T06:10:24.501Z,101487.54
2018-11-04T06:12:54.959Z,101486.80
2018-11-04T06:15:25.503Z,101480.66
2018-11-04T06:17:55.868Z,101489.22
2018-11-04T06:20:26.283Z,101493.08
2018-11-04T06:22:56.605Z,101492.44
2018-11-04T06:25:27.118Z,101492.39
2018-11-04T06:27:57.705Z,101489.34
2018-11-04T06:30:28.188Z,101497.17
2018-11-04T06:32:58.543Z,101495.29
2018-11-04T06:35:28.933Z,101499.14
2018-11-04T06:37:59.383Z,101501.45
2018-11-04T06:40:29.699Z,101494.16
2018-11-04T06:43:00.975Z,101496.66
2018-11-04T06:45:31.451Z,101498.31
2018-11-04T06:48:02.063Z,101499.48
2018-11-04T06:50:32.543Z,101501.53
2018-11-04T06:53:02.915Z,101504.84
2018-11-04T06:55:33.279Z,101508.69
2018-11-04T06:58:03.747Z,101506.92
2018-11-04T07:00:34.280Z,101510.41
2018-11-04T07:03:04.851Z,101501.73
2018-11-04T07:05:35.208Z,101495.50
2018-11-04T07:08:05.799Z,101486.00
2018-11-04T07:10:36.180Z,101486.92
2018-11-04T07:13:06.764Z,101483.19
2018-11-04T07:15:37.159Z,101480.97
2018-11-04T07:18:07.620Z,101479.38
2018-11-04T07:20:37.895Z,101480.22
2018-11-04T07:23:08.492Z,101483.47
2018-11-04T07:25:39.673Z,101482.06
2018-11-04T07:28:10.175Z,101483.22
2018-11-04T07:30:40.643Z,101480.47
2018-11-04T07:33:11.040Z,101484.66
2018-11-04T07:35:41.527Z,101489.02
2018-11-04T07:38:11.744Z,101495.04
2018-11-04T07:40:42.075Z,101489.68
2018-11-04T07:43:12.453Z,101490.97
2018-11-04T07:45:42.708Z,101492.33
2018-11-04T07:48:13.181Z,101492.44
2018-11-04T07:50:43.653Z,101487.77
2018-11-04T07:53:14.127Z,101476.52
2018-11-04T07:55:44.540Z,101479.55
2018-11-04T07:58:15.026Z,101475.53
2018-11-04T08:00:45.509Z,101475.88
2018-11-04T08:03:15.817Z,101472.77
2018-11-04T08:05:46.153Z,101475.88
2018-11-04T08:08:16.684Z,101473.99
2018-11-04T08:10:47.056Z,101466.75
2018-11-04T08:13:17.433Z,101467.88
2018-11-04T08:15:47.917Z,101459.30
2018-11-04T08:18:18.268Z,101459.83
2018-11-04T08:20:48.553Z,101464.13
2018-11-04T08:23:19.048Z,101455.88
2018-11-04T08:25:49.320Z,101454.63
2018-11-04T08:28:19.778Z,101448.71
2018-11-04T08:30:50.056Z,101446.80
2018-11-04T08:33:20.956Z,101443.30
2018-11-04T08:35:51.361Z,101434.57
2018-11-04T08:38:21.708Z,101443.91
2018-11-04T08:40:52.013Z,101438.05
2018-11-04T08:43:22.479Z,101431.44
2018-11-04T08:45:52.926Z,101437.86
2018-11-04T08:48:23.211Z,101435.31
2018-11-04T08:50:53.616Z,101436.98
2018-11-04T08:53:24.087Z,101426.23
2018-11-04T08:55:54.503Z,101419.18
2018-11-04T08:58:25.067Z,101419.92
2018-11-04T09:00:56.437Z,101417.42
2018-11-04T09:03:26.842Z,101419.96
2018-11-04T09:05:57.243Z,101421.16
2018-11-04T09:08:27.605Z,101419.30
2018-11-04T09:10:57.997Z,101419.48
2018-11-04T09:13:28.474Z,101410.69
2018-11-04T09:15:58.965Z,101411.44
2018-11-04T09:18:29.332Z,101401.19
2018-11-04T09:20:59.699Z,101407.05
2018-11-04T09:23:30.266Z,101407.23
2018-11-04T09:26:00.601Z,101392.53
2018-11-04T09:28:30.938Z,101393.64
2018-11-04T09:31:01.435Z,101402.68
2018-11-04T09:33:31.798Z,101394.01
2018-11-04T09:36:02.298Z,101392.23
2018-11-04T09:38:32.777Z,101390.77
2018-11-04T09:41:03.557Z,101382.95
2018-11-04T09:43:33.832Z,101376.70
2018-11-04T09:46:04.216Z,101381.47
2018-11-04T09:48:34.984Z,101377.94
2018-11-04T09:51:05.607Z,101385.91
2018-11-04T09:53:35.991Z,101384.03
2018-11-04T09:56:06.685Z,101380.17
2018-11-04T09:58:37.081Z,101380.62
2018-11-04T10:01:07.661Z,101379.81
2018-11-04T10:03:37.996Z,101384.77
2018-11-04T10:06:08.259Z,101376.64
2018-11-04T10:08:38.840Z,101382.30
2018-11-04T10:11:09.265Z,101374.57
2018-11-04T10:13:40.290Z,101378.17
2018-11-04T10:16:10.831Z,101378.23
2018-11-04T10:18:41.447Z,101363.31
2018-11-04T10:21:12.634Z,101362.70
2018-11-04T10:23:42.704Z,101361.53
2018-11-04T10:26:13.360Z,101362.22
2018-11-04T10:28:43.933Z,101354.85
2018-11-04T10:31:14.348Z,101347.00
2018-11-04T10:36:14.113Z,101340.43
2018-11-04T10:38:44.757Z,101336.05
2018-11-04T10:41:15.252Z,101335.02
2018-11-04T10:43:45.475Z,101339.67
2018-11-04T10:46:16.041Z,101331.89
2018-11-04T10:48:46.396Z,101329.40
2018-11-04T10:51:16.885Z,101322.73
2018-11-04T10:53:47.114Z,101323.30
2018-11-04T10:56:17.521Z,101314.94
2018-11-04T10:58:48.072Z,101312.08
2018-11-04T11:01:18.480Z,101302.34
2018-11-04T11:03:48.771Z,101298.11
2018-11-04T11:06:19.130Z,101288.30
2018-11-04T11:08:49.732Z,101283.46
2018-11-04T11:11:20.203Z,101282.38
2018-11-04T11:13:50.683Z,101284.00
2018-11-04T11:16:21.181Z,101270.53
2018-11-04T11:18:51.544Z,101267.98
2018-11-04T11:21:21.931Z,101267.74
2018-11-04T11:23:52.413Z,101268.42
2018-11-04T11:26:22.775Z,101268.72
2018-11-04T11:28:53.160Z,101256.55
2018-11-04T11:31:23.751Z,101259.20
2018-11-04T11:33:54.536Z,101260.18
2018-11-04T11:36:25.037Z,101250.59
2018-11-04T11:38:55.501Z,101247.51
2018-11-04T11:41:25.856Z,101249.63
2018-11-04T11:43:56.367Z,101248.50
2018-11-04T11:46:27.005Z,101242.95
2018-11-04T11:48:57.597Z,101238.91
2018-11-04T11:51:28.082Z,101231.02
2018-11-04T11:53:58.507Z,101229.39
2018-11-04T11:56:28.880Z,101231.81
2018-11-04T11:58:59.441Z,101227.34
2018-11-04T12:01:29.824Z,101222.79
2018-11-04T12:04:00.252Z,101221.84
2018-11-04T12:06:30.712Z,101223.56
2018-11-04T12:09:01.084Z,101221.72
2018-11-04T12:11:31.481Z,101218.97
2018-11-04T12:14:01.823Z,101218.14
2018-11-04T12:16:32.232Z,101219.16
2018-11-04T12:19:02.723Z,101220.09
2018-11-04T12:21:33.195Z,101214.47
2018-11-04T12:24:03.668Z,101213.14
2018-11-04T12:26:34.144Z,101204.00
2018-11-04T12:29:04.629Z,101195.94
2018-11-04T12:31:35.013Z,101190.01
2018-11-04T12:34:05.704Z,101183.77
2018-11-04T12:36:36.272Z,101183.28
2018-11-04T12:39:09.072Z,101180.53
2018-11-04T12:41:39.623Z,101174.19
2018-11-04T12:44:10.228Z,101179.53
2018-11-04T12:46:40.563Z,101182.14
2018-11-04T12:49:10.874Z,101184.43
2018-11-04T12:51:45.111Z,101185.80
2018-11-04T12:54:15.674Z,101195.59
2018-11-04T12:56:46.166Z,101196.65
2018-11-04T12:59:16.844Z,101192.82
2018-11-04T13:01:47.284Z,101189.94
2018-11-04T13:04:17.733Z,101199.89
2018-11-04T13:06:48.154Z,101191.99
2018-11-04T13:09:18.659Z,101187.19
2018-11-04T13:11:49.097Z,101182.64
2018-11-04T13:14:19.532Z,101174.81
2018-11-04T13:16:49.940Z,101175.83
2018-11-04T13:19:20.415Z,101163.66
2018-11-04T13:21:51.932Z,101159.91
2018-11-04T13:24:22.516Z,101157.14
2018-11-04T13:26:53.026Z,101159.34
2018-11-04T13:29:23.435Z,101159.48
2018-11-04T13:31:53.724Z,101149.67
2018-11-04T13:34:24.464Z,101147.97
2018-11-04T13:36:55.028Z,101138.74
2018-11-04T13:39:25.410Z,101130.12
2018-11-04T13:41:55.964Z,101135.20
2018-11-04T13:44:26.344Z,101137.19
2018-11-04T13:46:56.944Z,101136.50
2018-11-04T13:49:27.293Z,101139.61
2018-11-04T13:51:57.774Z,101131.70
2018-11-04T13:54:28.300Z,101120.67
2018-11-04T13:56:58.664Z,101126.69
2018-11-04T13:59:29.217Z,101119.16
2018-11-04T14:01:59.727Z,101117.20
2018-11-04T14:04:30.836Z,101109.63
2018-11-04T14:07:01.305Z,101107.80
2018-11-04T14:09:31.555Z,101108.08
2018-11-04T14:12:02.063Z,101103.72
2018-11-04T14:14:32.631Z,101102.42
2018-11-04T14:17:03.163Z,101091.52
2018-11-04T14:19:34.271Z,101087.56
2018-11-04T14:22:04.923Z,101087.30
2018-11-04T14:24:35.512Z,101090.66
2018-11-04T14:27:06.093Z,101075.80
2018-11-04T14:29:36.318Z,101084.50
2018-11-04T14:32:06.984Z,101087.92
2018-11-04T14:34:37.327Z,101091.30
2018-11-04T14:37:07.907Z,101083.59
2018-11-04T14:39:38.258Z,101089.63
2018-11-04T14:42:09.080Z,101093.17
2018-11-04T14:44:39.459Z,101095.52
2018-11-04T14:47:09.804Z,101100.31
2018-11-04T14:49:40.312Z,101094.28
2018-11-04T14:52:10.728Z,101086.64
2018-11-04T14:54:41.052Z,101088.25
2018-11-04T14:57:11.552Z,101100.19
2018-11-04T14:59:42.129Z,101086.97
2018-11-04T15:02:12.743Z,101083.20
2018-11-04T15:04:43.228Z,101084.90
2018-11-04T15:07:13.700Z,101082.67
2018-11-04T15:09:44.169Z,101081.95
2018-11-04T15:12:14.572Z,101072.55
2018-11-04T15:14:45.211Z,101073.29
2018-11-04T15:17:15.715Z,101070.48
2018-11-04T15:19:46.196Z,101076.06
2018-11-04T15:22:16.584Z,101076.96
2018-11-04T15:24:47.066Z,101071.77
2018-11-04T15:27:19.206Z,101067.09
2018-11-04T15:29:49.774Z,101078.53
2018-11-04T15:32:20.157Z,101077.03
2018-11-04T15:34:50.661Z,101076.86
2018-11-04T15:37:20.889Z,101067.55
2018-11-04T15:39:51.424Z,101069.01
2018-11-04T15:42:21.826Z,101064.03
2018-11-04T15:44:52.137Z,101066.85
2018-11-04T15:47:22.531Z,101061.99
2018-11-04T15:49:52.992Z,101060.02
2018-11-04T15:52:23.464Z,101052.50
2018-11-04T15:54:53.921Z,101039.36
2018-11-04T15:57:24.957Z,101048.09
2018-11-04T15:59:55.359Z,101050.19
2018-11-04T16:02:25.867Z,101055.84
2018-11-04T16:04:56.319Z,101053.63
2018-11-04T16:07:26.791Z,101059.45
2018-11-04T16:09:57.164Z,101050.19
2018-11-04T16:12:27.580Z,101055.56
2018-11-04T16:14:57.956Z,101059.34
2018-11-04T16:17:28.411Z,101055.58
2018-11-04T16:19:59.277Z,101059.31
2018-11-04T16:22:29.691Z,101062.47
2018-11-04T16:25:00.058Z,101060.90
2018-11-04T16:27:30.531Z,101054.08
2018-11-04T16:30:00.939Z,101054.54
2018-11-04T16:32:31.411Z,101055.44
2018-11-04T16:35:01.773Z,101053.61
2018-11-04T16:37:32.143Z,101063.48
2018-11-04T16:40:02.554Z,101059.00
2018-11-04T16:42:32.935Z,101053.81
2018-11-04T16:45:04.199Z,101055.64
2018-11-04T16:47:34.608Z,101048.42
2018-11-04T16:50:05.805Z,101045.06
2018-11-04T16:52:36.305Z,101044.59
2018-11-04T16:55:07.643Z,101047.10
2018-11-04T16:57:38.079Z,101049.77
2018-11-04T17:00:09.961Z,101048.20
2018-11-04T17:02:40.519Z,101049.47
2018-11-04T17:05:11.920Z,101046.95
2018-11-04T17:07:42.885Z,101040.59
2018-11-04T17:10:13.427Z,101039.44
2018-11-04T17:12:43.820Z,101041.77
2018-11-04T17:15:15.160Z,101044.42
2018-11-04T17:17:45.636Z,101047.77
2018-11-04T17:20:18.594Z,101046.77
2018-11-04T17:22:49.103Z,101043.52
2018-11-04T17:25:19.577Z,101041.03
2018-11-04T17:27:49.913Z,101044.48
2018-11-04T17:30:20.570Z,101038.67
2018-11-04T17:32:50.920Z,101029.33
2018-11-04T17:35:21.288Z,101041.09
2018-11-04T17:37:51.809Z,101038.14
2018-11-04T17:40:22.171Z,101032.16
2018-11-04T17:42:52.459Z,101031.72
2018-11-04T17:45:23.347Z,101029.09
2018-11-04T17:47:53.724Z,101024.05
2018-11-04T17:50:24.164Z,101026.20
2018-11-04T17:52:54.378Z,101025.02
2018-11-04T17:55:24.844Z,101029.56
2018-11-04T17:57:55.249Z,101029.73
2018-11-04T18:00:25.737Z,101031.62
2018-11-04T18:02:56.333Z,101026.31
2018-11-04T18:05:27.577Z,101018.86
2018-11-04T18:07:58.022Z,101016.60
2018-11-04T18:10:28.385Z,101014.11
2018-11-04T18:12:59.426Z,101013.28
2018-11-04T18:15:30.067Z,101017.06
2018-11-04T18:18:00.556Z,101016.47
2018-11-04T18:20:31.179Z,101021.98
2018-11-04T18:23:01.516Z,101020.76
2018-11-04T18:25:31.870Z,101016.03
2018-11-04T18:28:02.276Z,101017.23
2018-11-04T18:30:32.775Z,101015.05
2018-11-04T18:33:03.349Z,101008.56
2018-11-04T18:35:33.712Z,101019.83
2018-11-04T18:38:04.092Z,101014.04
2018-11-04T18:40:34.671Z,101007.86
2018-11-04T18:43:05.294Z,101008.20
2018-11-04T18:45:35.538Z,101001.59
2018-11-04T18:48:06.029Z,101001.64
2018-11-04T18:50:36.694Z,101003.84
2018-11-04T18:53:07.487Z,101008.89
2018-11-04T18:55:37.866Z,101001.13
2018-11-04T18:58:08.441Z,100997.71
2018-11-04T19:00:38.952Z,101004.89
2018-11-04T19:03:09.438Z,100993.15
2018-11-04T19:05:39.949Z,100997.30
2018-11-04T19:08:10.274Z,100991.86
2018-11-04T19:10:40.847Z,100991.35
2018-11-04T19:13:11.262Z,100995.12
2018-11-04T19:15:43.110Z,101001.06
2018-11-04T19:18:16.390Z,100999.45
2018-11-04T19:20:46.994Z,100991.64
2018-11-04T19:23:17.671Z,100996.61
2018-11-04T19:25:48.158Z,100995.24
2018-11-04T19:28:18.565Z,100993.55
2018-11-04T19:30:49.118Z,101001.25
2018-11-04T19:33:19.449Z,100996.83
2018-11-04T19:35:49.991Z,101001.59
2018-11-04T19:38:20.909Z,100999.70
2018-11-04T19:40:51.441Z,101000.98
2018-11-04T19:43:21.731Z,100995.39
2018-11-04T19:45:52.346Z,100991.28
2018-11-04T19:48:22.621Z,100997.04
2018-11-04T19:50:53.367Z,100991.41
2018-11-04T19:53:23.651Z,100991.53
2018-11-04T19:55:54.145Z,100992.13
2018-11-04T19:58:24.570Z,100989.52
2018-11-04T20:00:55.215Z,100990.03
2018-11-04T20:03:25.719Z,100985.00
2018-11-04T20:05:56.282Z,100989.97
2018-11-04T20:08:27.236Z,100977.92
2018-11-04T20:10:57.698Z,100984.92
2018-11-04T20:13:33.195Z,100993.30
2018-11-04T20:16:03.619Z,100987.72
2018-11-04T20:18:39.107Z,100986.02
2018-11-04T20:21:09.540Z,100986.82
2018-11-04T20:23:39.971Z,100987.95
2018-11-04T20:26:11.396Z,100984.92
2018-11-04T20:28:41.876Z,100974.83
2018-11-04T20:31:17.527Z,100968.53
2018-11-04T20:33:47.973Z,100960.48
2018-11-04T20:36:18.841Z,100957.62
2018-11-04T20:38:54.493Z,100961.00
2018-11-04T20:41:29.718Z,100959.46
2018-11-04T20:44:00.665Z,100952.98
2018-11-04T20:46:31.095Z,100965.09
2018-11-04T20:49:06.431Z,100955.88
2018-11-04T20:51:36.933Z,100951.86
2018-11-04T20:54:07.945Z,100949.61
2018-11-04T20:56:43.204Z,100938.78
2018-11-04T20:59:13.619Z,100937.36
2018-11-04T21:01:44.205Z,100929.77
2018-11-04T21:04:14.805Z,100924.19
2018-11-04T21:06:45.326Z,100922.33
2018-11-04T21:09:16.206Z,100918.83
2018-11-04T21:11:46.800Z,100917.02
2018-11-04T21:14:17.271Z,100920.44
2018-11-04T21:16:47.905Z,100918.17
2018-11-04T21:19:18.244Z,100919.54
2018-11-04T21:21:48.900Z,100922.06
2018-11-04T21:24:19.493Z,100915.77
2018-11-04T21:26:49.897Z,100923.69
2018-11-04T21:29:20.634Z,100925.48
2018-11-04T21:31:50.948Z,100921.22
2018-11-04T21:34:21.456Z,100917.64
2018-11-04T21:36:52.877Z,100926.67
2018-11-04T21:39:23.205Z,100917.91
2018-11-04T21:41:53.704Z,100916.42
2018-11-04T21:44:24.130Z,100916.34
2018-11-04T21:46:54.507Z,100916.55
2018-11-04T21:49:25.020Z,100909.42
2018-11-04T21:51:55.409Z,100910.91
2018-11-04T21:54:25.835Z,100909.31
2018-11-04T21:56:56.503Z,100907.80
2018-11-04T21:59:26.823Z,100901.97
2018-11-04T22:01:57.391Z,100903.61
2018-11-04T22:04:27.866Z,100893.88
2018-11-04T22:06:58.399Z,100889.06
2018-11-04T22:09:29.272Z,100890.10
2018-11-04T22:11:59.863Z,100884.48
2018-11-04T22:14:30.366Z,100889.59
2018-11-04T22:17:02.935Z,100884.48
2018-11-04T22:19:33.374Z,100888.30
2018-11-04T22:22:03.735Z,100895.28
2018-11-04T22:24:34.228Z,100890.06
2018-11-04T22:27:04.608Z,100885.64
2018-11-04T22:29:34.914Z,100887.27
2018-11-04T22:32:05.251Z,100890.76
2018-11-04T22:34:35.611Z,100890.17
2018-11-04T22:37:06.239Z,100888.75
2018-11-04T22:39:36.852Z,100889.39
2018-11-04T22:42:07.441Z,100890.31
2018-11-04T22:44:37.982Z,100889.86
2018-11-04T22:47:08.256Z,100882.81
2018-11-04T22:49:38.615Z,100882.91
2018-11-04T22:52:09.097Z,100882.88
2018-11-04T22:54:39.600Z,100884.67
2018-11-04T22:57:09.974Z,100883.38
2018-11-04T22:59:40.266Z,100880.86
2018-11-04T23:02:10.699Z,100877.42
2018-11-04T23:04:46.251Z,100882.02
2018-11-04T23:07:16.597Z,100877.04
2018-11-04T23:09:47.201Z,100878.20
2018-11-04T23:12:17.892Z,100883.12
2018-11-04T23:14:48.432Z,100880.02
2018-11-04T23:17:18.815Z,100882.88
2018-11-04T23:19:49.114Z,100877.04
2018-11-04T23:22:19.618Z,100866.61
2018-11-04T23:24:50.204Z,100866.48
2018-11-04T23:27:20.705Z,100857.72
2018-11-04T23:29:50.988Z,100858.83
2018-11-04T23:32:21.528Z,100846.20
2018-11-04T23:34:51.894Z,100844.19
2018-11-04T23:37:22.412Z,100845.30
2018-11-04T23:39:53.443Z,100843.03
2018-11-04T23:42:23.831Z,100841.41
2018-11-04T23:44:54.040Z,100838.42
2018-11-04T23:47:24.599Z,100839.39
2018-11-04T23:49:55.012Z,100832.84
2018-11-04T23:52:25.497Z,100834.20
2018-11-04T23:54:55.752Z,100832.41
2018-11-04T23:57:26.173Z,100826.36
2018-11-04T23:59:56.549Z,100819.52
